Time;durP1;ratioP1;P1;durP2;ratioP2;P2;SDS_P1;SDS_P2;PMS_P1;PMS_P2;Temp;Humidity;BMP_temperature;BMP_pressure;BME280_temperature;BME280_humidity;BME280_pressure;Samples;Min_cycle;Max_cycle;Signal;HPM_P1;HPM_P2
2023/08/20 00:01:00;;;;;;;5.40;4.90;;;26.00;99.90;;;;;;7394535;19;20160;-74
2023/08/20 00:03:25;;;;;;;7.00;5.80;;;26.00;99.90;;;;;;7391091;19;20178;-74
2023/08/20 00:05:51;;;;;;;6.05;5.45;;;25.90;99.90;;;;;;7392601;19;20479;-73
2023/08/20 00:08:18;;;;;;;6.20;5.55;;;25.80;99.90;;;;;;7392192;19;20146;-74
2023/08/20 00:10:44;;;;;;;7.22;5.50;;;25.90;99.90;;;;;;7390152;19;20148;-74
2023/08/20 00:13:09;;;;;;;7.25;5.50;;;25.80;99.90;;;;;;7391534;19;20133;-74
2023/08/20 00:15:35;;;;;;;7.72;5.30;;;25.80;99.90;;;;;;7392296;19;20143;-76
2023/08/20 00:18:02;;;;;;;6.47;4.90;;;25.70;99.90;;;;;;7391505;19;20222;-74
2023/08/20 00:20:28;;;;;;;8.48;5.68;;;25.70;99.90;;;;;;7390840;19;20570;-74
2023/08/20 00:22:54;;;;;;;6.75;4.95;;;25.70;99.90;;;;;;7391332;19;20131;-73
2023/08/20 00:25:20;;;;;;;8.52;5.85;;;25.70;99.90;;;;;;7391927;19;20168;-74
2023/08/20 00:27:46;;;;;;;8.23;4.90;;;25.80;99.90;;;;;;7391760;19;20544;-74
2023/08/20 00:30:12;;;;;;;6.43;4.93;;;25.80;99.90;;;;;;7389035;19;20155;-74
2023/08/20 00:32:38;;;;;;;6.38;5.05;;;25.80;99.90;;;;;;7392111;19;20168;-74
2023/08/20 00:35:04;;;;;;;5.90;4.72;;;25.70;99.90;;;;;;7391117;19;20182;-74
2023/08/20 00:37:31;;;;;;;7.68;4.95;;;25.70;99.90;;;;;;7393318;19;20497;-75
2023/08/20 00:39:57;;;;;;;6.65;5.68;;;25.70;99.90;;;;;;7391775;19;20130;-74
2023/08/20 00:42:25;;;;;;;6.10;4.80;;;25.80;99.90;;;;;;7390246;19;20197;-74
2023/08/20 00:44:52;;;;;;;6.75;5.00;;;25.70;99.90;;;;;;7394359;19;20130;-73
2023/08/20 00:47:19;;;;;;;7.00;5.43;;;25.70;99.90;;;;;;7391386;19;20491;-73
2023/08/20 00:49:46;;;;;;;5.13;4.63;;;25.80;99.90;;;;;;7389744;19;20479;-74
2023/08/20 00:52:13;;;;;;;7.18;5.38;;;25.70;99.90;;;;;;7393019;19;20130;-74
2023/08/20 00:54:40;;;;;;;5.80;5.28;;;25.70;99.90;;;;;;7390688;19;20127;-74
2023/08/20 00:57:06;;;;;;;5.55;4.80;;;25.50;99.90;;;;;;7391027;19;20245;-74
2023/08/20 00:59:33;;;;;;;7.78;5.13;;;25.50;99.90;;;;;;7390717;19;20219;-73
2023/08/20 01:02:00;;;;;;;5.22;4.72;;;25.50;99.90;;;;;;7390539;19;20134;-73
2023/08/20 01:04:26;;;;;;;5.70;4.93;;;25.50;99.90;;;;;;7381891;19;20189;-73
2023/08/20 01:07:05;;;;;;;7.35;5.18;;;25.60;99.90;;;;;;7390488;19;20130;-74
2023/08/20 01:09:49;;;;;;;7.22;5.50;;;25.60;99.90;;;;;;7390155;19;20242;-73
2023/08/20 01:12:17;;;;;;;6.72;5.65;;;25.50;99.90;;;;;;7390255;19;20130;-74
2023/08/20 01:14:42;;;;;;;8.40;5.38;;;25.40;99.90;;;;;;7390492;19;20135;-74
2023/08/20 01:17:08;;;;;;;5.90;5.07;;;25.50;99.90;;;;;;7389220;19;20162;-73
2023/08/20 01:19:35;;;;;;;6.05;4.60;;;25.50;99.90;;;;;;7389282;19;20186;-74
2023/08/20 01:22:38;;;;;;;8.25;5.50;;;25.50;99.90;;;;;;7390153;19;20214;-74
2023/08/20 01:25:49;;;;;;;6.43;5.50;;;25.50;99.90;;;;;;7389917;19;20154;-74
2023/08/20 01:28:31;;;;;;;6.55;5.20;;;25.10;99.90;;;;;;7390244;19;20150;-74
2023/08/20 01:30:58;;;;;;;5.88;4.80;;;25.10;99.90;;;;;;7387076;19;20150;-74
2023/08/20 01:33:25;;;;;;;7.18;5.38;;;25.20;99.90;;;;;;7390312;19;20127;-74
2023/08/20 01:35:54;;;;;;;5.57;4.97;;;25.20;99.90;;;;;;7392472;19;20137;-74
2023/08/20 01:38:21;;;;;;;5.80;5.20;;;25.20;99.90;;;;;;7389157;19;20143;-75
2023/08/20 01:40:47;;;;;;;5.90;5.20;;;25.10;99.90;;;;;;7390215;19;20143;-75
2023/08/20 01:43:13;;;;;;;7.65;5.90;;;25.10;99.90;;;;;;7390175;19;20493;-73
2023/08/20 01:45:39;;;;;;;6.60;5.32;;;25.20;99.90;;;;;;7390249;19;20229;-73
2023/08/20 01:48:05;;;;;;;6.80;5.57;;;25.20;99.90;;;;;;7388494;19;20182;-74
2023/08/20 01:50:31;;;;;;;6.70;5.90;;;25.20;99.90;;;;;;7386767;19;20147;-73
2023/08/20 01:52:56;;;;;;;7.25;6.05;;;25.20;99.90;;;;;;7389317;19;20153;-74
2023/08/20 01:55:22;;;;;;;6.15;5.43;;;25.00;99.90;;;;;;7389193;19;20159;-73
2023/08/20 01:57:48;;;;;;;6.22;5.50;;;24.80;99.90;;;;;;7388234;19;20218;-74
2023/08/20 02:00:14;;;;;;;6.25;5.60;;;25.00;99.90;;;;;;7390239;19;20205;-74
2023/08/20 02:02:40;;;;;;;9.07;5.97;;;25.10;99.90;;;;;;7390841;19;20150;-74
2023/08/20 02:05:06;;;;;;;9.35;5.97;;;24.90;99.90;;;;;;7386199;19;20460;-74
2023/08/20 02:07:32;;;;;;;7.65;5.78;;;25.00;99.90;;;;;;7386015;19;20186;-74
2023/08/20 02:09:57;;;;;;;6.93;5.38;;;25.10;99.90;;;;;;7382272;19;20538;-73
2023/08/20 02:12:24;;;;;;;6.05;5.32;;;25.10;99.90;;;;;;7389931;19;20157;-73
2023/08/20 02:14:50;;;;;;;7.78;5.50;;;25.00;99.90;;;;;;7388304;19;20148;-74
2023/08/20 02:17:16;;;;;;;6.10;5.50;;;24.70;99.90;;;;;;7387506;19;20138;-73
2023/08/20 02:19:41;;;;;;;6.07;5.38;;;24.70;99.90;;;;;;7388174;19;20163;-73
2023/08/20 02:22:07;;;;;;;6.93;5.43;;;24.40;99.90;;;;;;7387345;19;20178;-74
2023/08/20 02:24:33;;;;;;;6.97;5.28;;;24.30;99.90;;;;;;7382224;19;20158;-74
2023/08/20 02:26:58;;;;;;;6.50;5.15;;;24.40;99.90;;;;;;7389506;19;20138;-74
2023/08/20 02:29:24;;;;;;;7.75;5.45;;;24.60;99.90;;;;;;7386794;19;20153;-74
2023/08/20 02:31:50;;;;;;;6.75;5.78;;;24.60;99.90;;;;;;7388469;19;20178;-73
2023/08/20 02:34:16;;;;;;;7.43;5.50;;;24.50;99.90;;;;;;7388278;19;20523;-74
2023/08/20 02:36:42;;;;;;;7.38;5.68;;;24.10;99.90;;;;;;7390399;19;20135;-74
2023/08/20 02:39:13;;;;;;;7.88;5.85;;;24.00;99.90;;;;;;7420801;19;20171;-74
2023/08/20 02:41:39;;;;;;;7.10;5.85;;;24.10;99.90;;;;;;7423329;19;20433;-74
2023/08/20 02:44:05;;;;;;;7.15;4.90;;;23.90;99.90;;;;;;7419964;19;20138;-75
2023/08/20 02:46:31;;;;;;;5.20;4.72;;;24.00;99.90;;;;;;7421509;19;20133;-75
2023/08/20 02:48:56;;;;;;;7.07;5.80;;;24.00;99.90;;;;;;7420045;19;20701;-74
2023/08/20 02:51:22;;;;;;;7.43;5.88;;;24.20;99.90;;;;;;7421287;19;20255;-75
2023/08/20 02:53:49;;;;;;;7.50;5.55;;;24.40;99.90;;;;;;7421134;19;20169;-75
2023/08/20 02:56:14;;;;;;;6.88;5.43;;;24.20;99.90;;;;;;7424100;19;20140;-75
2023/08/20 02:58:40;;;;;;;7.18;5.63;;;24.20;99.90;;;;;;7419955;19;20197;-74
2023/08/20 03:01:06;;;;;;;8.63;5.93;;;24.30;99.90;;;;;;7421948;19;20160;-75
2023/08/20 03:03:32;;;;;;;8.80;5.30;;;24.40;99.90;;;;;;7421356;19;20142;-74
2023/08/20 03:05:58;;;;;;;6.68;5.80;;;24.40;99.90;;;;;;7422763;19;20705;-74
2023/08/20 03:08:23;;;;;;;6.38;5.35;;;24.10;99.90;;;;;;7419789;19;20213;-74
2023/08/20 03:10:49;;;;;;;6.18;5.57;;;24.00;99.90;;;;;;7419828;19;20213;-74
2023/08/20 03:13:15;;;;;;;6.25;5.65;;;24.10;99.90;;;;;;7421543;19;20165;-75
2023/08/20 03:15:41;;;;;;;9.23;5.90;;;24.20;99.90;;;;;;7420021;19;20201;-75
2023/08/20 03:18:07;;;;;;;5.90;5.30;;;24.40;99.90;;;;;;7419135;19;20145;-74
2023/08/20 03:20:32;;;;;;;7.43;5.70;;;24.50;99.90;;;;;;7418346;19;20126;-74
2023/08/20 03:22:58;;;;;;;9.43;5.90;;;24.50;99.90;;;;;;7420223;19;20147;-74
2023/08/20 03:25:24;;;;;;;9.70;5.65;;;24.60;99.90;;;;;;7421445;19;20133;-74
2023/08/20 03:27:51;;;;;;;7.63;5.63;;;24.60;99.90;;;;;;7421100;19;20463;-75
2023/08/20 03:30:17;;;;;;;7.43;5.78;;;24.70;99.90;;;;;;7419317;19;20138;-75
2023/08/20 03:32:43;;;;;;;6.50;5.10;;;24.70;99.90;;;;;;7419977;19;20137;-74
2023/08/20 03:35:09;;;;;;;7.25;5.20;;;24.50;99.90;;;;;;7421135;19;20137;-74
2023/08/20 03:37:35;;;;;;;6.40;5.65;;;24.50;99.90;;;;;;7420244;19;20225;-73
2023/08/20 03:40:00;;;;;;;6.00;5.40;;;24.50;99.90;;;;;;7419659;19;20134;-73
2023/08/20 03:42:26;;;;;;;6.68;5.43;;;24.50;99.90;;;;;;7418967;19;20617;-74
2023/08/20 03:44:52;;;;;;;8.65;6.07;;;24.30;99.90;;;;;;7420434;19;20160;-73
2023/08/20 03:47:20;;;;;;;8.25;5.75;;;24.50;99.90;;;;;;7419354;19;20609;-73
2023/08/20 03:49:50;;;;;;;6.82;5.47;;;24.40;99.90;;;;;;7401537;19;20449;-73
2023/08/20 03:52:15;;;;;;;7.43;5.80;;;24.40;99.90;;;;;;7392881;19;20225;-74
2023/08/20 03:54:41;;;;;;;7.38;5.60;;;24.30;99.90;;;;;;7390651;19;20134;-73
2023/08/20 03:57:07;;;;;;;8.05;5.50;;;24.20;99.90;;;;;;7390554;19;20213;-75
2023/08/20 03:59:33;;;;;;;6.32;5.47;;;24.00;99.90;;;;;;7386716;19;20464;-75
2023/08/20 04:01:59;;;;;;;8.25;6.32;;;24.10;99.90;;;;;;7391698;19;20167;-74
2023/08/20 04:04:25;;;;;;;6.10;5.50;;;24.20;99.90;;;;;;7388554;19;20146;-74
2023/08/20 04:06:51;;;;;;;6.57;5.82;;;24.20;99.90;;;;;;7390577;19;20733;-75
2023/08/20 04:09:17;;;;;;;6.28;5.68;;;24.00;99.90;;;;;;7392832;19;20734;-74
2023/08/20 04:11:43;;;;;;;8.65;6.50;;;24.20;99.90;;;;;;7389522;19;20138;-73
2023/08/20 04:14:08;;;;;;;8.63;7.05;;;24.40;99.90;;;;;;7389134;19;20154;-73
2023/08/20 04:16:34;;;;;;;8.73;6.60;;;24.50;99.90;;;;;;7393127;19;20528;-74
2023/08/20 04:19:00;;;;;;;9.23;7.10;;;24.40;99.90;;;;;;7387410;19;20494;-73
2023/08/20 04:21:26;;;;;;;8.05;6.20;;;24.30;99.90;;;;;;7390827;19;20468;-74
2023/08/20 04:23:51;;;;;;;9.02;6.15;;;24.20;99.90;;;;;;7389809;19;20558;-75
2023/08/20 04:26:18;;;;;;;7.75;6.22;;;24.10;99.90;;;;;;7392610;19;20146;-74
2023/08/20 04:28:43;;;;;;;8.38;6.30;;;24.10;99.90;;;;;;7389354;19;20578;-74
2023/08/20 04:31:09;;;;;;;7.82;6.25;;;24.10;99.90;;;;;;7389663;19;20159;-74
2023/08/20 04:33:35;;;;;;;8.45;6.15;;;24.20;99.90;;;;;;7390394;19;20139;-74
2023/08/20 04:36:00;;;;;;;7.88;5.82;;;24.20;99.90;;;;;;7390366;19;20154;-74
2023/08/20 04:38:26;;;;;;;7.13;5.68;;;24.10;99.90;;;;;;7389186;19;20161;-75
2023/08/20 04:40:52;;;;;;;9.45;6.53;;;24.00;99.90;;;;;;7389698;19;20201;-74
2023/08/20 04:43:18;;;;;;;9.57;6.28;;;24.10;99.90;;;;;;7390259;19;20143;-74
2023/08/20 04:45:43;;;;;;;7.88;6.40;;;24.20;99.90;;;;;;7390223;19;20153;-74
2023/08/20 04:48:09;;;;;;;8.88;6.80;;;24.20;99.90;;;;;;7389923;19;20168;-75
2023/08/20 04:50:35;;;;;;;8.68;6.68;;;24.20;99.90;;;;;;7389715;19;20134;-74
2023/08/20 04:53:01;;;;;;;9.27;8.30;;;24.10;99.90;;;;;;7388918;19;20278;-74
2023/08/20 04:55:28;;;;;;;8.07;7.03;;;24.00;99.90;;;;;;7390184;19;20135;-74
2023/08/20 04:57:53;;;;;;;7.82;7.03;;;24.00;99.90;;;;;;7390320;19;20598;-74
2023/08/20 05:00:19;;;;;;;9.90;7.00;;;24.00;99.90;;;;;;7387728;19;20173;-73
2023/08/20 05:02:45;;;;;;;7.78;6.35;;;24.00;99.90;;;;;;7389686;19;20143;-74
2023/08/20 05:05:11;;;;;;;10.00;6.90;;;24.00;99.90;;;;;;7387990;19;20738;-74
2023/08/20 05:07:37;;;;;;;7.32;6.57;;;24.00;99.90;;;;;;7389898;19;20493;-74
2023/08/20 05:10:03;;;;;;;8.43;7.07;;;24.10;99.90;;;;;;7388433;19;20226;-74
2023/08/20 05:12:29;;;;;;;9.07;6.85;;;24.20;99.90;;;;;;7388639;19;20143;-74
2023/08/20 05:14:55;;;;;;;8.43;7.05;;;24.20;99.90;;;;;;7388031;19;20147;-74
2023/08/20 05:17:20;;;;;;;8.70;7.47;;;24.10;99.90;;;;;;7387898;19;20154;-75
2023/08/20 05:19:46;;;;;;;11.85;6.43;;;24.10;99.90;;;;;;7391094;19;20161;-73
2023/08/20 05:22:12;;;;;;;8.00;6.78;;;24.10;99.90;;;;;;7387513;19;20139;-74
2023/08/20 05:24:38;;;;;;;9.50;6.40;;;23.80;99.90;;;;;;7389482;19;20142;-72
2023/08/20 05:27:17;;;;;;;7.18;6.20;;;23.70;99.90;;;;;;7388665;19;20146;-73
2023/08/20 05:29:43;;;;;;;9.98;7.13;;;23.90;99.90;;;;;;7388243;19;20149;-74
2023/08/20 05:32:09;;;;;;;9.27;6.80;;;24.10;99.90;;;;;;7388938;19;20151;-72
2023/08/20 05:34:35;;;;;;;7.25;6.35;;;24.20;99.90;;;;;;7390380;19;20254;-73
2023/08/20 05:37:00;;;;;;;7.95;6.88;;;24.20;99.90;;;;;;7389917;19;20139;-73
2023/08/20 05:39:27;;;;;;;8.07;7.22;;;24.20;99.90;;;;;;7387576;19;20637;-74
2023/08/20 05:41:53;;;;;;;8.25;7.13;;;24.00;99.90;;;;;;7388521;19;20189;-73
2023/08/20 05:44:19;;;;;;;7.97;6.82;;;24.00;99.90;;;;;;7387172;19;20139;-73
2023/08/20 05:46:45;;;;;;;8.88;6.78;;;24.00;99.90;;;;;;7388837;19;20139;-73
2023/08/20 05:49:12;;;;;;;9.07;7.40;;;24.00;99.90;;;;;;7387786;19;20473;-74
2023/08/20 05:51:37;;;;;;;8.82;7.13;;;24.10;99.90;;;;;;7389566;19;20134;-72
2023/08/20 05:54:03;;;;;;;9.32;7.20;;;24.10;99.90;;;;;;7387292;19;20665;-73
2023/08/20 05:56:29;;;;;;;9.23;7.20;;;24.20;99.90;;;;;;7386888;19;20135;-73
2023/08/20 05:58:55;;;;;;;8.93;7.43;;;24.30;99.90;;;;;;7384654;19;20202;-73
2023/08/20 06:01:21;;;;;;;8.02;6.90;;;24.30;99.90;;;;;;7387562;19;20145;-71
2023/08/20 06:03:47;;;;;;;7.88;6.90;;;24.20;99.90;;;;;;7386332;19;20614;-73
2023/08/20 06:06:13;;;;;;;7.28;6.55;;;24.00;99.90;;;;;;7387184;19;20587;-74
2023/08/20 06:08:39;;;;;;;7.97;6.72;;;24.00;99.90;;;;;;7386964;19;20141;-74
2023/08/20 06:11:04;;;;;;;9.48;6.60;;;24.10;99.90;;;;;;7387383;19;20145;-74
2023/08/20 06:13:30;;;;;;;7.50;6.75;;;24.20;99.90;;;;;;7388671;19;20167;-73
2023/08/20 06:15:56;;;;;;;9.52;7.05;;;24.30;99.90;;;;;;7386090;19;20209;-74
2023/08/20 06:18:21;;;;;;;8.60;6.25;;;24.50;99.90;;;;;;7386024;19;20606;-73
2023/08/20 06:20:47;;;;;;;11.93;6.80;;;24.60;99.90;;;;;;7385075;19;20161;-72
2023/08/20 06:23:13;;;;;;;7.45;6.35;;;24.70;99.90;;;;;;7388075;19;20162;-72
2023/08/20 06:25:39;;;;;;;7.38;6.10;;;24.80;99.90;;;;;;7389401;19;20172;-72
2023/08/20 06:28:04;;;;;;;9.52;5.97;;;24.90;99.90;;;;;;7384141;19;20155;-73
2023/08/20 06:30:30;;;;;;;7.32;6.50;;;24.70;99.90;;;;;;7388562;19;20154;-73
2023/08/20 06:32:56;;;;;;;8.43;6.72;;;24.60;99.90;;;;;;7387542;19;20153;-73
2023/08/20 06:35:22;;;;;;;10.40;6.50;;;24.90;99.90;;;;;;7386869;19;20135;-73
2023/08/20 06:37:47;;;;;;;8.63;6.40;;;25.00;99.90;;;;;;7384713;19;20135;-72
2023/08/20 06:40:13;;;;;;;6.55;5.95;;;25.20;99.90;;;;;;7388129;19;20617;-73
2023/08/20 06:42:39;;;;;;;7.30;6.60;;;25.30;99.90;;;;;;7385449;19;20157;-74
2023/08/20 06:45:06;;;;;;;8.30;6.63;;;25.10;99.90;;;;;;7386152;19;20537;-73
2023/08/20 06:47:31;;;;;;;7.95;6.13;;;25.30;99.90;;;;;;7382963;19;20207;-74
2023/08/20 06:49:57;;;;;;;7.18;6.47;;;25.50;99.90;;;;;;7384621;19;20134;-72
2023/08/20 06:52:23;;;;;;;7.47;6.53;;;25.60;99.90;;;;;;7385723;19;20158;-72
2023/08/20 06:54:49;;;;;;;9.80;6.45;;;25.70;99.90;;;;;;7386118;19;20137;-73
2023/08/20 06:57:14;;;;;;;8.52;7.15;;;25.70;99.90;;;;;;7384217;19;20515;-71
2023/08/20 06:59:42;;;;;;;7.22;6.53;;;25.90;99.90;;;;;;7383376;19;20154;-71
2023/08/20 07:02:08;;;;;;;7.70;6.97;;;26.20;99.90;;;;;;7384588;19;20152;-72
2023/08/20 07:04:33;;;;;;;11.02;6.57;;;26.60;99.90;;;;;;7381716;19;20189;-72
2023/08/20 07:06:59;;;;;;;9.15;6.90;;;26.80;99.90;;;;;;7387262;19;20160;-72
2023/08/20 07:09:25;;;;;;;9.55;7.10;;;27.20;99.90;;;;;;7386299;19;20143;-73
2023/08/20 07:11:50;;;;;;;9.18;7.03;;;27.00;99.90;;;;;;7382181;19;20147;-73
2023/08/20 07:14:16;;;;;;;9.40;7.57;;;26.90;99.90;;;;;;7385801;19;20638;-73
2023/08/20 07:16:45;;;;;;;8.90;6.40;;;27.20;99.90;;;;;;7385190;19;20145;-73
2023/08/20 07:19:10;;;;;;;8.10;7.28;;;27.50;99.90;;;;;;7383478;19;20130;-73
2023/08/20 07:21:39;;;;;;;8.55;7.07;;;27.60;99.90;;;;;;7385322;19;20135;-74
2023/08/20 07:24:05;;;;;;;8.50;6.75;;;28.00;99.90;;;;;;7386704;19;20161;-73
2023/08/20 07:26:31;;;;;;;9.10;6.82;;;28.50;99.90;;;;;;7391731;19;20143;-73
2023/08/20 07:28:57;;;;;;;7.57;6.43;;;29.00;99.90;;;;;;7391597;19;20139;-73
2023/08/20 07:31:33;;;;;;;10.27;6.45;;;29.20;99.90;;;;;;7392058;19;20191;-73
2023/08/20 07:34:02;;;;;;;7.65;6.85;;;29.50;99.90;;;;;;7393221;19;20126;-72
2023/08/20 07:36:28;;;;;;;7.68;6.85;;;29.40;99.90;;;;;;7393514;19;20203;-73
2023/08/20 07:38:54;;;;;;;7.68;6.90;;;29.30;99.90;;;;;;7391657;19;20497;-73
2023/08/20 07:41:21;;;;;;;8.60;6.80;;;29.20;99.90;;;;;;7393196;19;20138;-72
2023/08/20 07:43:47;;;;;;;8.35;7.18;;;29.10;99.90;;;;;;7392333;19;20123;-73
2023/08/20 07:46:13;;;;;;;7.20;6.50;;;28.80;99.90;;;;;;7392214;19;20127;-73
2023/08/20 07:48:39;;;;;;;9.40;6.45;;;28.80;99.90;;;;;;7390617;19;20138;-72
2023/08/20 07:51:06;;;;;;;7.82;6.00;;;28.60;99.90;;;;;;7390991;19;20138;-73
2023/08/20 07:53:32;;;;;;;8.27;7.22;;;29.00;99.90;;;;;;7391358;19;20154;-73
2023/08/20 07:56:00;;;;;;;8.23;6.63;;;28.90;99.90;;;;;;7394628;19;20137;-73
2023/08/20 07:58:26;;;;;;;8.77;6.15;;;28.70;99.90;;;;;;7389464;19;20131;-72
2023/08/20 08:00:51;;;;;;;9.43;7.05;;;28.90;99.90;;;;;;7391989;19;20133;-73
2023/08/20 08:03:17;;;;;;;6.90;6.15;;;29.40;99.90;;;;;;7391018;19;20183;-72
2023/08/20 08:05:50;;;;;;;9.20;7.00;;;29.70;99.90;;;;;;7390900;19;20130;-73
2023/08/20 08:08:16;;;;;;;7.22;6.57;;;29.90;99.90;;;;;;7391113;19;20166;-76
2023/08/20 08:10:44;;;;;;;8.13;6.57;;;30.10;99.90;;;;;;7388009;19;20138;-75
2023/08/20 08:13:11;;;;;;;7.45;5.95;;;30.10;99.90;;;;;;7389539;19;20166;-74
2023/08/20 08:15:37;;;;;;;7.13;6.40;;;30.60;99.90;;;;;;7390978;19;20458;-74
2023/08/20 08:18:03;;;;;;;8.80;6.53;;;30.80;99.90;;;;;;7390508;19;20135;-75
2023/08/20 08:20:29;;;;;;;9.85;6.55;;;30.80;99.90;;;;;;7388366;19;20492;-74
2023/08/20 08:22:54;;;;;;;7.38;6.68;;;30.90;99.90;;;;;;7391754;19;20142;-75
2023/08/20 08:25:20;;;;;;;7.85;6.60;;;30.50;99.90;;;;;;7390464;19;20146;-75
2023/08/20 08:27:46;;;;;;;8.95;6.80;;;30.20;99.90;;;;;;7391861;19;20135;-75
2023/08/20 08:30:12;;;;;;;8.10;7.03;;;29.80;99.90;;;;;;7392633;19;20139;-75
2023/08/20 08:32:38;;;;;;;8.65;7.25;;;29.50;99.90;;;;;;7392035;19;20158;-75
2023/08/20 08:35:04;;;;;;;7.80;7.00;;;29.50;99.90;;;;;;7390641;19;20169;-75
2023/08/20 08:37:29;;;;;;;11.48;8.43;;;29.30;99.90;;;;;;7389629;19;20153;-76
2023/08/20 08:39:55;;;;;;;9.15;7.13;;;29.30;99.90;;;;;;7389720;19;20134;-75
2023/08/20 08:42:23;;;;;;;9.20;7.32;;;29.40;99.90;;;;;;7390312;19;20640;-76
2023/08/20 08:44:50;;;;;;;9.43;7.07;;;29.50;99.90;;;;;;7391572;19;20138;-75
2023/08/20 08:47:16;;;;;;;8.48;7.22;;;29.80;99.90;;;;;;7390757;19;20225;-76
2023/08/20 08:49:43;;;;;;;8.50;7.70;;;29.60;99.90;;;;;;7391113;19;20138;-75
2023/08/20 08:52:11;;;;;;;9.38;7.43;;;29.30;99.90;;;;;;7392919;19;20135;-76
2023/08/20 08:54:37;;;;;;;8.57;7.18;;;29.10;99.90;;;;;;7390208;19;20529;-76
2023/08/20 08:57:02;;;;;;;8.23;7.20;;;29.10;99.90;;;;;;7387955;19;20141;-76
2023/08/20 08:59:28;;;;;;;9.70;7.88;;;29.10;99.90;;;;;;7389753;19;20126;-76
2023/08/20 09:01:56;;;;;;;12.82;8.10;;;29.30;99.90;;;;;;7389721;19;20519;-76
2023/08/20 09:04:22;;;;;;;10.73;8.00;;;29.40;99.90;;;;;;7386728;19;20147;-76
2023/08/20 09:06:53;;;;;;;8.25;7.22;;;29.10;99.90;;;;;;7386973;19;20150;-76
2023/08/20 09:09:19;;;;;;;9.07;7.47;;;29.10;99.90;;;;;;7387416;19;20142;-75
2023/08/20 09:11:46;;;;;;;8.50;7.30;;;29.20;99.90;;;;;;7388394;19;20151;-75
2023/08/20 09:14:30;;;;;;;8.52;6.68;;;29.30;99.90;;;;;;7387731;19;20593;-75
2023/08/20 09:17:02;;;;;;;11.10;8.35;;;29.50;99.90;;;;;;7381382;19;20134;-74
2023/08/20 09:19:32;;;;;;;9.75;7.05;;;29.50;99.90;;;;;;7383716;19;20135;-74
2023/08/20 09:22:03;;;;;;;7.47;6.68;;;29.60;99.90;;;;;;7383826;19;20131;-74
2023/08/20 09:24:44;;;;;;;7.93;7.13;;;29.50;99.90;;;;;;7386090;19;20147;-75
2023/08/20 09:27:11;;;;;;;11.40;7.97;;;29.30;99.90;;;;;;7385535;19;20135;-75
2023/08/20 09:29:54;;;;;;;10.23;8.43;;;29.20;99.90;;;;;;7385753;19;20173;-75
2023/08/20 09:32:26;;;;;;;8.45;7.57;;;29.20;99.90;;;;;;7389732;19;20141;-75
2023/08/20 09:34:53;;;;;;;13.77;7.97;;;29.10;99.90;;;;;;7389754;19;20206;-76
2023/08/20 09:37:21;;;;;;;11.48;7.43;;;29.00;99.90;;;;;;7387113;19;20529;-75
2023/08/20 09:39:47;;;;;;;10.40;7.20;;;28.90;99.90;;;;;;7386491;19;20188;-75
2023/08/20 09:42:14;;;;;;;8.88;7.03;;;28.90;99.90;;;;;;7387281;19;20145;-75
2023/08/20 09:44:42;;;;;;;7.43;6.65;;;28.90;99.90;;;;;;7386853;19;20139;-75
2023/08/20 09:47:13;;;;;;;7.38;6.47;;;29.00;99.90;;;;;;7386482;19;20146;-75
2023/08/20 09:49:46;;;;;;;7.13;6.43;;;29.10;99.90;;;;;;7384619;19;20138;-74
2023/08/20 09:52:54;;;;;;;;;;;;;;;;;;;;;
2023/08/20 09:55:36;;;;;;;8.05;6.72;;;29.30;99.90;;;;;;7386926;19;20202;-76
2023/08/20 09:58:03;;;;;;;7.43;6.72;;;29.40;99.90;;;;;;7385179;19;20131;-78
2023/08/20 10:00:29;;;;;;;7.72;6.00;;;29.30;99.90;;;;;;7388026;19;20172;-78
2023/08/20 10:02:56;;;;;;;8.45;6.93;;;29.40;99.90;;;;;;7387578;19;20142;-77
2023/08/20 10:05:26;;;;;;;8.52;6.20;;;29.50;99.90;;;;;;7384127;19;20496;-78
2023/08/20 10:07:52;;;;;;;7.20;6.53;;;29.60;99.90;;;;;;7386653;19;20159;-80
2023/08/20 10:10:18;;;;;;;6.60;5.63;;;29.50;99.90;;;;;;7387737;19;20151;-77
2023/08/20 10:12:45;;;;;;;8.75;6.03;;;29.60;99.90;;;;;;7387395;19;20151;-78
2023/08/20 10:15:13;;;;;;;9.52;6.15;;;29.70;99.90;;;;;;7388549;19;20130;-79
2023/08/20 10:17:41;;;;;;;9.68;6.80;;;30.00;99.90;;;;;;7387093;19;20177;-78
2023/08/20 10:20:12;;;;;;;8.85;6.47;;;30.20;99.90;;;;;;7386165;19;20135;-78
2023/08/20 10:22:40;;;;;;;8.00;6.35;;;30.20;99.90;;;;;;7386690;19;20130;-77
2023/08/20 10:25:07;;;;;;;7.43;6.00;;;29.90;99.90;;;;;;7387585;19;20142;-78
2023/08/20 10:27:35;;;;;;;6.72;6.03;;;29.70;99.90;;;;;;7387676;19;20126;-78
2023/08/20 10:30:07;;;;;;;6.50;5.90;;;29.60;99.90;;;;;;7388147;19;20138;-78
2023/08/20 10:32:51;;;;;;;7.50;6.43;;;29.50;99.90;;;;;;7388169;19;20146;-78
2023/08/20 10:35:27;;;;;;;7.00;5.93;;;29.70;99.90;;;;;;7384521;19;20156;-78
2023/08/20 10:38:12;;;;;;;6.30;5.70;;;29.80;99.90;;;;;;7389107;19;20122;-77
2023/08/20 10:40:55;;;;;;;6.18;5.57;;;29.80;99.90;;;;;;7385956;19;20495;-77
2023/08/20 10:43:41;;;;;;;6.55;5.90;;;30.00;99.90;;;;;;7385236;19;20860;-77
2023/08/20 10:46:17;;;;;;;9.55;5.38;;;30.20;99.90;;;;;;7387432;19;20142;-78
2023/08/20 10:48:59;;;;;;;9.20;5.95;;;30.40;99.90;;;;;;7387525;19;20138;-78
2023/08/20 10:51:26;;;;;;;6.68;5.78;;;30.40;99.90;;;;;;7386673;19;20195;-77
2023/08/20 10:54:01;;;;;;;11.23;6.22;;;30.30;99.90;;;;;;7387024;19;20157;-78
2023/08/20 10:56:58;;;;;;;9.18;6.15;;;30.30;99.90;;;;;;7388572;19;20509;-79
2023/08/20 10:59:29;;;;;;;8.27;5.60;;;30.30;99.90;;;;;;7382364;19;20226;-78
2023/08/20 11:01:57;;;;;;;8.60;5.57;;;30.40;99.90;;;;;;7393153;19;20134;-77
2023/08/20 11:04:32;;;;;;;6.57;5.75;;;30.50;99.90;;;;;;7388904;19;20169;-78
2023/08/20 11:06:59;;;;;;;5.78;5.18;;;30.40;99.90;;;;;;7392696;19;20525;-78
2023/08/20 11:09:29;;;;;;;6.53;5.22;;;30.40;99.90;;;;;;7389212;19;20150;-80
2023/08/20 11:11:56;;;;;;;7.35;5.95;;;30.50;99.90;;;;;;7391412;19;20463;-79
2023/08/20 11:14:22;;;;;;;8.50;5.53;;;30.50;99.90;;;;;;7393327;19;20634;-79
2023/08/20 11:16:48;;;;;;;5.93;5.32;;;30.40;99.90;;;;;;7394529;19;20147;-79
2023/08/20 11:19:20;;;;;;;5.50;4.95;;;30.40;99.90;;;;;;7392069;19;20803;-79
2023/08/20 11:21:46;;;;;;;7.25;5.28;;;30.30;99.90;;;;;;7394264;19;20131;-78
2023/08/20 11:24:12;;;;;;;6.60;5.28;;;30.40;99.90;;;;;;7395104;19;20177;-78
2023/08/20 11:26:43;;;;;;;7.68;5.35;;;30.60;99.90;;;;;;7394822;19;20139;-79
2023/08/20 11:29:12;;;;;;;5.45;4.95;;;30.50;99.90;;;;;;7392536;19;20146;-79
2023/08/20 11:31:38;;;;;;;6.18;5.22;;;30.50;99.90;;;;;;7392173;19;20134;-78
2023/08/20 11:34:05;;;;;;;7.55;5.25;;;30.50;99.90;;;;;;7394002;19;20131;-78
2023/08/20 11:36:32;;;;;;;5.63;4.93;;;30.50;99.90;;;;;;7393590;19;20134;-77
2023/08/20 11:38:57;;;;;;;5.07;4.57;;;30.70;99.90;;;;;;7391727;19;20141;-79
2023/08/20 11:41:24;;;;;;;7.68;5.05;;;30.70;99.90;;;;;;7390980;19;20147;-82
2023/08/20 11:43:52;;;;;;;5.07;4.57;;;30.90;99.90;;;;;;7393120;19;20486;-75
2023/08/20 11:46:22;;;;;;;5.93;4.82;;;30.90;99.90;;;;;;7392960;19;20150;-76
2023/08/20 11:49:03;;;;;;;5.38;4.72;;;31.00;99.90;;;;;;7392001;19;20528;-75
2023/08/20 11:51:43;;;;;;;5.38;4.75;;;31.30;99.90;;;;;;7391933;19;20434;-76
2023/08/20 11:54:14;;;;;;;7.82;4.55;;;31.40;99.90;;;;;;7390538;19;20130;-74
2023/08/20 11:56:50;;;;;;;5.75;5.13;;;31.60;99.90;;;;;;7390956;19;20170;-75
2023/08/20 11:59:19;;;;;;;6.07;4.53;;;31.60;99.90;;;;;;7388803;19;20123;-75
2023/08/20 12:02:00;;;;;;;7.07;5.05;;;31.50;99.90;;;;;;7389619;19;20134;-76
2023/08/20 12:04:27;;;;;;;6.15;5.00;;;31.40;99.90;;;;;;7390654;19;20154;-76
2023/08/20 12:07:13;;;;;;;5.50;4.80;;;31.30;99.90;;;;;;7392658;19;20139;-76
2023/08/20 12:09:39;;;;;;;6.78;4.40;;;31.30;99.90;;;;;;7392098;19;20138;-76
2023/08/20 12:12:07;;;;;;;7.15;4.47;;;31.30;99.90;;;;;;7390948;19;20138;-76
2023/08/20 12:14:32;;;;;;;5.55;4.85;;;31.20;99.90;;;;;;7391236;19;20142;-76
2023/08/20 12:16:58;;;;;;;6.78;4.50;;;31.20;99.90;;;;;;7391210;19;20551;-76
2023/08/20 12:19:24;;;;;;;6.45;4.93;;;31.20;99.90;;;;;;7388030;19;20138;-75
2023/08/20 12:21:50;;;;;;;8.50;4.85;;;31.20;99.90;;;;;;7385583;19;20166;-76
2023/08/20 12:24:18;;;;;;;4.95;3.88;;;31.20;99.90;;;;;;7389911;19;20864;-78
2023/08/20 12:26:45;;;;;;;6.05;4.55;;;31.30;99.90;;;;;;7391162;19;20476;-77
2023/08/20 12:29:10;;;;;;;6.07;4.38;;;31.40;99.90;;;;;;7389914;19;20154;-76
2023/08/20 12:31:36;;;;;;;6.47;4.20;;;31.50;99.90;;;;;;7389864;19;20197;-77
2023/08/20 12:34:03;;;;;;;5.45;4.88;;;31.60;99.90;;;;;;7388690;19;20141;-78
2023/08/20 12:36:28;;;;;;;5.88;4.35;;;31.60;99.90;;;;;;7389946;19;20245;-77
2023/08/20 12:38:55;;;;;;;5.47;4.63;;;31.60;99.90;;;;;;7387820;19;20142;-77
2023/08/20 12:41:21;;;;;;;6.15;4.35;;;31.60;99.90;;;;;;7389334;19;20146;-77
2023/08/20 12:43:47;;;;;;;6.13;4.63;;;31.70;99.90;;;;;;7389538;19;20587;-78
2023/08/20 12:46:13;;;;;;;5.82;4.75;;;31.70;99.90;;;;;;7390287;19;20153;-75
2023/08/20 12:48:39;;;;;;;5.40;4.90;;;31.70;99.90;;;;;;7389914;19;20146;-77
2023/08/20 12:51:05;;;;;;;5.35;4.15;;;31.60;99.90;;;;;;7391587;19;20467;-77